Time;durP1;ratioP1;P1;durP2;ratioP2;P2;SDS_P1;SDS_P2;PMS_P1;PMS_P2;Temp;Humidity;BMP_temperature;BMP_pressure;BME280_temperature;BME280_humidity;BME280_pressure;Samples;Min_cycle;Max_cycle;Signal;HPM_P1;HPM_P2
2022/01/08 00:01:58;;;;;;;20.20;8.87;;;4.20;74.30;;;;;;4992710;28;20399;-73
2022/01/08 00:04:24;;;;;;;14.50;8.60;;;4.20;73.30;;;;;;4992410;28;20445;-71
2022/01/08 00:06:50;;;;;;;13.90;8.50;;;4.20;74.10;;;;;;4992445;28;20391;-72
2022/01/08 00:09:16;;;;;;;13.90;9.05;;;4.20;74.90;;;;;;4992343;28;20749;-71
2022/01/08 00:11:42;;;;;;;12.20;7.77;;;4.20;74.40;;;;;;4991239;28;20446;-75
2022/01/08 00:14:10;;;;;;;13.90;7.93;;;4.20;74.30;;;;;;4992263;28;20437;-71
2022/01/08 00:16:37;;;;;;;12.73;7.93;;;4.20;74.20;;;;;;4992154;28;20457;-72
2022/01/08 00:19:04;;;;;;;12.43;7.97;;;4.20;74.00;;;;;;4992396;28;20740;-71
2022/01/08 00:21:29;;;;;;;14.43;8.63;;;4.20;74.90;;;;;;4992308;28;20390;-73
2022/01/08 00:23:55;;;;;;;16.23;9.20;;;4.20;74.30;;;;;;4992613;28;20453;-72
2022/01/08 00:26:21;;;;;;;14.45;9.00;;;4.20;75.00;;;;;;4992777;28;20433;-71
2022/01/08 00:28:46;;;;;;;16.47;9.37;;;4.20;74.80;;;;;;4992294;28;20508;-73
2022/01/08 00:31:12;;;;;;;16.13;9.80;;;4.10;75.00;;;;;;4991920;28;20387;-72
2022/01/08 00:33:40;;;;;;;13.07;8.57;;;4.00;75.40;;;;;;4991630;28;21153;-72
2022/01/08 00:36:07;;;;;;;12.93;8.57;;;3.90;76.40;;;;;;4991918;28;20867;-71
2022/01/08 00:38:33;;;;;;;12.45;8.77;;;3.90;77.70;;;;;;4991810;28;20394;-70
2022/01/08 00:40:58;;;;;;;14.52;8.50;;;3.90;78.70;;;;;;4991729;28;20422;-72
2022/01/08 00:43:24;;;;;;;12.40;8.77;;;4.00;79.90;;;;;;4990559;28;20430;-73
2022/01/08 00:45:50;;;;;;;13.20;8.87;;;4.00;79.90;;;;;;4992307;28;20382;-70
2022/01/08 00:48:15;;;;;;;21.17;11.20;;;4.00;80.00;;;;;;4991951;28;20796;-73
2022/01/08 00:50:41;;;;;;;14.57;9.03;;;3.90;80.10;;;;;;4993028;28;20386;-72
2022/01/08 00:53:06;;;;;;;16.60;9.70;;;4.00;79.70;;;;;;4991232;28;20394;-73
2022/01/08 00:55:32;;;;;;;16.45;9.45;;;3.90;79.60;;;;;;4992825;28;20386;-72
2022/01/08 00:57:58;;;;;;;16.93;8.67;;;3.90;80.10;;;;;;4992969;28;20927;-72
2022/01/08 01:00:24;;;;;;;15.88;8.90;;;3.90;80.20;;;;;;4993092;28;20417;-73
2022/01/08 01:02:50;;;;;;;21.40;9.60;;;3.80;80.10;;;;;;4995821;28;20402;-71
2022/01/08 01:05:15;;;;;;;12.55;8.50;;;3.70;80.20;;;;;;5003381;28;20466;-72
2022/01/08 01:07:41;;;;;;;17.50;10.33;;;3.70;80.30;;;;;;4998186;28;20430;-73
2022/01/08 01:10:08;;;;;;;20.10;9.90;;;3.60;80.70;;;;;;4993894;28;20397;-72
2022/01/08 01:12:35;;;;;;;14.68;9.00;;;3.40;82.20;;;;;;4996959;28;20472;-73
2022/01/08 01:15:01;;;;;;;14.30;8.57;;;3.30;84.50;;;;;;4996676;28;20383;-72
2022/01/08 01:17:27;;;;;;;16.02;9.40;;;3.30;85.20;;;;;;4998164;28;20457;-72
2022/01/08 01:19:52;;;;;;;14.23;8.57;;;3.20;85.40;;;;;;4999699;28;20409;-72
2022/01/08 01:22:21;;;;;;;21.02;8.93;;;3.20;87.10;;;;;;5000702;28;20395;-71
2022/01/08 01:24:48;;;;;;;15.43;8.48;;;3.20;89.30;;;;;;4999050;28;20429;-72
2022/01/08 01:48:20;;;;;;;14.40;8.90;;;3.10;91.30;;;;;;4995039;28;20413;-71
2022/01/08 01:50:47;;;;;;;21.50;9.40;;;3.10;93.90;;;;;;4995142;28;20382;-72
2022/01/08 01:53:13;;;;;;;17.87;8.90;;;3.10;91.30;;;;;;4995166;28;20530;-74
2022/01/08 01:55:40;;;;;;;17.25;9.50;;;3.10;92.30;;;;;;4994259;28;20985;-73
2022/01/08 01:58:05;;;;;;;21.20;9.90;;;3.00;93.30;;;;;;4995590;28;20759;-73
2022/01/08 02:00:32;;;;;;;21.85;9.30;;;2.90;95.30;;;;;;4995886;28;20398;-72
2022/01/08 02:02:59;;;;;;;18.33;9.73;;;2.80;94.00;;;;;;4994378;28;20409;-73
2022/01/08 02:05:25;;;;;;;18.13;9.20;;;2.70;96.10;;;;;;4995560;28;20402;-74
2022/01/08 02:07:51;;;;;;;21.00;9.65;;;2.60;97.50;;;;;;4995416;28;20935;-73
2022/01/08 02:10:16;;;;;;;17.13;8.90;;;3.00;98.60;;;;;;4995092;28;20496;-72
2022/01/08 02:12:42;;;;;;;17.40;9.57;;;2.80;96.80;;;;;;4995064;28;20386;-72
2022/01/08 02:15:08;;;;;;;19.80;10.13;;;2.70;98.00;;;;;;4994604;28;20387;-72
2022/01/08 02:17:33;;;;;;;18.23;10.00;;;2.70;99.90;;;;;;4994431;28;20390;-72
2022/01/08 02:19:59;;;;;;;17.92;9.70;;;2.60;99.90;;;;;;4997936;28;20391;-72
2022/01/08 02:22:24;;;;;;;20.50;10.90;;;2.70;99.90;;;;;;4993924;28;20398;-73
2022/01/08 02:24:50;;;;;;;22.00;11.32;;;2.50;99.90;;;;;;4994884;28;20390;-72
2022/01/08 02:27:16;;;;;;;20.77;11.33;;;2.50;99.90;;;;;;4997748;28;20394;-71
2022/01/08 02:29:43;;;;;;;20.23;10.68;;;2.70;99.90;;;;;;4996856;28;20409;-73
2022/01/08 02:32:15;;;;;;;21.25;11.25;;;2.70;99.90;;;;;;4994677;28;20756;-71
2022/01/08 02:34:41;;;;;;;20.50;11.43;;;2.80;99.90;;;;;;4994460;28;20383;-71
2022/01/08 02:37:08;;;;;;;22.75;12.30;;;2.80;99.80;;;;;;4994194;28;20390;-72
2022/01/08 02:39:39;;;;;;;24.02;11.93;;;2.70;99.90;;;;;;4993190;28;20402;-72
2022/01/08 02:42:07;;;;;;;24.10;13.32;;;2.70;99.90;;;;;;4994119;28;20856;-71
2022/01/08 02:44:33;;;;;;;19.65;12.15;;;2.60;99.90;;;;;;4994296;28;20387;-72
2022/01/08 02:46:59;;;;;;;26.40;14.80;;;2.70;99.90;;;;;;4994135;28;20383;-76
2022/01/08 02:49:24;;;;;;;22.85;12.80;;;2.70;99.90;;;;;;4993864;28;20772;-71
2022/01/08 02:51:51;;;;;;;21.30;12.68;;;2.70;99.90;;;;;;4993984;28;20390;-71
2022/01/08 02:54:17;;;;;;;29.52;14.23;;;2.50;99.90;;;;;;4993953;28;20465;-71
2022/01/08 02:56:45;;;;;;;25.67;14.33;;;2.40;99.90;;;;;;4993560;28;20498;-75
2022/01/08 02:59:12;;;;;;;25.73;14.70;;;2.50;99.90;;;;;;4993712;28;20452;-71
2022/01/08 03:01:37;;;;;;;28.77;14.30;;;2.40;99.90;;;;;;4993633;28;20398;-72
2022/01/08 03:04:04;;;;;;;27.52;15.18;;;2.30;99.90;;;;;;4993807;28;20763;-71
2022/01/08 03:06:31;;;;;;;34.60;15.70;;;2.40;99.90;;;;;;4993624;28;20458;-72
2022/01/08 03:08:56;;;;;;;26.42;14.27;;;2.50;99.90;;;;;;4993597;28;20454;-72
2022/01/08 03:11:22;;;;;;;35.58;16.08;;;2.40;99.90;;;;;;4993662;28;20418;-72
2022/01/08 03:13:48;;;;;;;31.05;16.10;;;2.50;99.90;;;;;;4993564;28;20415;-71
2022/01/08 03:16:14;;;;;;;33.38;16.42;;;2.50;99.90;;;;;;4993206;28;20962;-72
2022/01/08 03:18:40;;;;;;;28.70;15.85;;;2.50;99.90;;;;;;4993287;28;20815;-72
2022/01/08 03:21:14;;;;;;;30.73;15.43;;;2.60;99.90;;;;;;4993579;28;20441;-71
2022/01/08 03:23:52;;;;;;;26.65;15.05;;;2.60;99.90;;;;;;4993534;28;20453;-72
2022/01/08 03:26:19;;;;;;;30.10;15.38;;;2.60;99.90;;;;;;4991881;28;20777;-71
2022/01/08 03:28:45;;;;;;;23.48;14.75;;;2.70;99.80;;;;;;4991502;28;20414;-72
2022/01/08 03:31:12;;;;;;;30.40;15.77;;;2.60;98.20;;;;;;4993347;28;20390;-71
2022/01/08 03:33:38;;;;;;;28.08;15.80;;;2.60;98.60;;;;;;4992658;28;20390;-71
2022/01/08 03:36:04;;;;;;;27.05;15.65;;;2.40;99.10;;;;;;4993193;28;20437;-71
2022/01/08 03:38:31;;;;;;;27.10;16.27;;;2.40;99.90;;;;;;4992879;28;20401;-72
2022/01/08 03:40:57;;;;;;;33.53;16.20;;;2.40;99.90;;;;;;4993462;28;20421;-72
2022/01/08 03:43:23;;;;;;;29.07;15.33;;;2.60;99.90;;;;;;4993452;28;20398;-73
2022/01/08 03:45:48;;;;;;;29.03;16.07;;;2.80;96.10;;;;;;5002757;28;20468;-72
2022/01/08 03:50:46;;;;;;;30.27;16.20;;;2.80;93.70;;;;;;4993686;28;20484;-72
2022/01/08 03:53:12;;;;;;;31.07;16.30;;;2.90;92.40;;;;;;4992964;28;20497;-72
2022/01/08 03:55:38;;;;;;;32.45;16.80;;;2.90;92.40;;;;;;4992811;28;20390;-71
2022/01/08 03:58:04;;;;;;;29.83;16.58;;;2.80;91.70;;;;;;4992219;28;20492;-71
2022/01/08 04:00:30;;;;;;;32.30;16.70;;;2.70;93.70;;;;;;4992899;28;20418;-70
2022/01/08 04:02:56;;;;;;;30.80;17.85;;;2.70;93.70;;;;;;4992773;28;20481;-71
2022/01/08 04:05:22;;;;;;;31.92;17.23;;;2.70;94.00;;;;;;4992671;28;20486;-71
2022/01/08 04:07:47;;;;;;;41.53;17.20;;;2.60;93.20;;;;;;4992031;28;20853;-71
2022/01/08 04:10:13;;;;;;;32.83;18.20;;;2.50;95.70;;;;;;4990979;28;20484;-72
2022/01/08 04:12:46;;;;;;;31.50;18.00;;;2.50;96.00;;;;;;4992551;28;20390;-71
2022/01/08 04:17:46;;;;;;;31.25;16.58;;;2.20;98.90;;;;;;4992728;28;20405;-72
2022/01/08 04:20:12;;;;;;;34.47;19.35;;;2.20;99.90;;;;;;4992998;28;20386;-72
2022/01/08 04:22:37;;;;;;;30.23;18.10;;;2.20;99.90;;;;;;4996334;28;20883;-71
2022/01/08 04:25:03;;;;;;;33.83;18.90;;;2.10;99.90;;;;;;4996128;28;20403;-71
2022/01/08 04:27:29;;;;;;;34.60;18.42;;;2.20;99.90;;;;;;4992874;28;20418;-72
2022/01/08 04:29:54;;;;;;;34.80;19.15;;;2.10;99.90;;;;;;5006424;28;20398;-71
2022/01/08 04:32:20;;;;;;;33.77;18.87;;;2.10;99.90;;;;;;5011311;28;20411;-72
2022/01/08 04:34:45;;;;;;;34.13;18.57;;;2.10;99.90;;;;;;5000533;28;20395;-71
2022/01/08 04:37:11;;;;;;;34.20;19.90;;;2.10;99.90;;;;;;4997510;28;20390;-72
2022/01/08 04:39:37;;;;;;;35.92;19.33;;;2.00;99.90;;;;;;4992117;28;20481;-72
2022/01/08 04:42:02;;;;;;;38.60;19.88;;;2.10;99.90;;;;;;4991910;28;20393;-72
2022/01/08 04:44:28;;;;;;;36.13;20.27;;;2.20;99.90;;;;;;4991502;28;20461;-71
2022/01/08 04:46:54;;;;;;;35.35;18.13;;;2.20;99.70;;;;;;4991894;28;20406;-72
2022/01/08 04:49:19;;;;;;;36.13;18.98;;;2.20;99.30;;;;;;4990518;28;20410;-72
2022/01/08 04:51:45;;;;;;;32.67;18.83;;;2.20;99.00;;;;;;4991959;28;20416;-71
2022/01/08 04:54:10;;;;;;;40.83;19.20;;;2.20;98.80;;;;;;4991864;28;20866;-71
2022/01/08 04:56:36;;;;;;;38.60;20.17;;;2.30;99.80;;;;;;4991782;28;20933;-71
2022/01/08 04:59:02;;;;;;;31.73;18.23;;;2.30;99.20;;;;;;4990576;28;20530;-73
2022/01/08 05:01:27;;;;;;;30.10;17.80;;;2.30;99.70;;;;;;4992080;28;20402;-72
2022/01/08 05:03:53;;;;;;;33.40;18.87;;;2.30;99.90;;;;;;4990498;28;20399;-72
2022/01/08 05:06:19;;;;;;;33.53;17.73;;;2.40;96.10;;;;;;4991672;28;20410;-72
2022/01/08 05:08:45;;;;;;;36.25;17.42;;;2.40;95.60;;;;;;4990080;28;20407;-72
2022/01/08 05:11:10;;;;;;;32.50;17.70;;;2.40;95.50;;;;;;4991643;28;20394;-72
2022/01/08 05:13:37;;;;;;;33.27;17.20;;;2.30;95.50;;;;;;4991613;28;20383;-72
2022/01/08 05:16:04;;;;;;;34.70;18.40;;;2.20;96.50;;;;;;4991625;28;20760;-71
2022/01/08 05:18:31;;;;;;;32.50;16.80;;;2.20;97.10;;;;;;4991470;28;20840;-71
2022/01/08 05:21:09;;;;;;;34.83;18.23;;;2.10;98.70;;;;;;4991639;28;20440;-72
2022/01/08 05:23:34;;;;;;;38.60;17.93;;;2.00;98.70;;;;;;4992294;28;20408;-72
2022/01/08 05:26:00;;;;;;;31.60;18.48;;;2.00;99.90;;;;;;4991379;28;20398;-73
2022/01/08 05:28:26;;;;;;;32.40;17.83;;;2.10;99.90;;;;;;4996212;28;20478;-72
2022/01/08 05:30:51;;;;;;;37.67;18.47;;;2.00;99.50;;;;;;5009641;28;20855;-71
2022/01/08 05:33:17;;;;;;;37.70;18.10;;;1.90;99.60;;;;;;5010489;28;20395;-71
2022/01/08 05:35:44;;;;;;;40.05;18.52;;;1.90;99.90;;;;;;5002289;28;20859;-72
2022/01/08 05:38:09;;;;;;;36.45;18.23;;;1.80;99.90;;;;;;4997308;28;20394;-71
2022/01/08 05:40:35;;;;;;;33.50;17.40;;;1.80;99.90;;;;;;5006535;28;20429;-71
2022/01/08 05:43:01;;;;;;;37.20;18.40;;;1.80;99.90;;;;;;4992404;28;20399;-72
2022/01/08 05:45:26;;;;;;;34.72;18.50;;;1.80;99.90;;;;;;4991555;28;20489;-72
2022/01/08 05:47:52;;;;;;;33.90;18.55;;;1.80;99.90;;;;;;4991958;28;20465;-72
2022/01/08 05:50:17;;;;;;;33.80;17.43;;;1.80;99.90;;;;;;4992115;28;20459;-72
2022/01/08 05:52:43;;;;;;;37.90;18.27;;;1.80;99.90;;;;;;4997120;28;20382;-72
2022/01/08 05:55:10;;;;;;;40.15;18.90;;;1.90;99.90;;;;;;4994054;28;20424;-72
2022/01/08 05:57:35;;;;;;;36.10;17.45;;;2.00;99.90;;;;;;5001891;28;20390;-71
2022/01/08 06:00:03;;;;;;;39.67;17.92;;;1.80;99.80;;;;;;5001145;28;20485;-71
2022/01/08 06:02:29;;;;;;;37.03;17.67;;;1.80;99.90;;;;;;4998446;28;20382;-71
2022/01/08 06:04:54;;;;;;;44.00;17.67;;;1.70;99.90;;;;;;4999351;28;20449;-72
2022/01/08 06:07:20;;;;;;;38.92;17.33;;;1.90;99.90;;;;;;4994839;28;20474;-72
2022/01/08 06:09:45;;;;;;;40.35;17.38;;;1.80;99.90;;;;;;4994651;28;20795;-71
2022/01/08 06:12:11;;;;;;;32.60;17.20;;;1.80;99.90;;;;;;4994837;28;20389;-73
2022/01/08 06:14:37;;;;;;;38.03;17.53;;;1.90;99.90;;;;;;4994883;28;20448;-73
2022/01/08 06:17:02;;;;;;;38.05;17.63;;;2.00;99.90;;;;;;4993321;28;20390;-73
2022/01/08 06:19:28;;;;;;;34.40;16.52;;;2.20;99.10;;;;;;4994733;28;20794;-72
2022/01/08 06:21:54;;;;;;;30.90;16.50;;;2.20;98.20;;;;;;4994872;28;20978;-72
2022/01/08 06:24:19;;;;;;;28.67;15.67;;;2.20;96.80;;;;;;4995500;28;20374;-73
2022/01/08 06:26:45;;;;;;;40.83;17.77;;;2.10;97.40;;;;;;5001694;28;20474;-73
2022/01/08 06:29:11;;;;;;;30.98;17.42;;;2.00;97.20;;;;;;5004493;28;20414;-72
2022/01/08 06:31:36;;;;;;;36.43;17.10;;;2.00;98.20;;;;;;4994316;28;20943;-72
2022/01/08 06:34:03;;;;;;;32.63;16.23;;;2.10;96.80;;;;;;4994122;28;20394;-72
2022/01/08 06:36:29;;;;;;;33.67;17.05;;;2.00;97.40;;;;;;4994279;28;20382;-72
2022/01/08 06:38:54;;;;;;;33.20;16.37;;;1.90;99.50;;;;;;4993896;28;20400;-72
2022/01/08 06:41:20;;;;;;;30.88;16.65;;;2.00;98.80;;;;;;4992164;28;20417;-72
2022/01/08 06:43:47;;;;;;;35.15;17.30;;;2.10;99.90;;;;;;4993938;28;20402;-72
2022/01/08 06:46:13;;;;;;;34.50;17.35;;;2.00;98.80;;;;;;4992536;28;20414;-72
2022/01/08 06:48:40;;;;;;;32.67;18.13;;;2.00;99.80;;;;;;4992371;28;20514;-72
2022/01/08 06:51:05;;;;;;;37.72;18.92;;;2.10;99.60;;;;;;4993730;28;20394;-73
2022/01/08 06:53:31;;;;;;;34.28;17.10;;;2.00;99.60;;;;;;4994172;28;20401;-73
2022/01/08 06:55:57;;;;;;;37.80;19.00;;;2.00;99.90;;;;;;4993645;28;20815;-72
2022/01/08 06:58:25;;;;;;;39.83;19.90;;;2.00;99.90;;;;;;4993408;28;20406;-73
2022/01/08 07:00:50;;;;;;;42.80;19.73;;;2.00;99.90;;;;;;4993599;28;20394;-72
2022/01/08 07:03:16;;;;;;;45.77;19.93;;;2.00;99.90;;;;;;4993610;28;20394;-72
2022/01/08 07:05:42;;;;;;;43.80;19.40;;;2.00;99.90;;;;;;4993723;28;20422;-72
2022/01/08 07:08:08;;;;;;;37.58;18.67;;;2.00;99.90;;;;;;4992499;28;20421;-72
2022/01/08 07:10:34;;;;;;;43.17;19.20;;;2.00;99.90;;;;;;4993432;28;20372;-72
2022/01/08 07:13:00;;;;;;;42.28;18.25;;;2.00;99.90;;;;;;4993380;28;20387;-72
2022/01/08 07:15:26;;;;;;;37.50;18.83;;;2.00;99.90;;;;;;4993705;28;20437;-72
2022/01/08 07:17:52;;;;;;;43.33;20.98;;;1.90;99.90;;;;;;4994327;28;20397;-72
2022/01/08 07:20:18;;;;;;;40.30;19.13;;;1.90;99.90;;;;;;4996628;28;20454;-72
2022/01/08 07:22:43;;;;;;;43.72;20.42;;;1.80;99.90;;;;;;5001313;28;20391;-72
2022/01/08 07:25:10;;;;;;;46.42;20.42;;;1.90;99.90;;;;;;5001420;28;20728;-72
2022/01/08 07:27:36;;;;;;;40.03;20.58;;;1.80;99.90;;;;;;5005760;28;20411;-72
2022/01/08 07:30:05;;;;;;;45.95;20.00;;;1.80;99.90;;;;;;5007992;28;20456;-72
2022/01/08 07:32:30;;;;;;;37.78;19.98;;;1.90;99.90;;;;;;5007804;28;20395;-71
2022/01/08 07:34:56;;;;;;;46.50;20.97;;;1.90;99.90;;;;;;4996665;28;20399;-73
2022/01/08 07:37:21;;;;;;;48.58;22.65;;;1.90;99.90;;;;;;4993753;28;20414;-73
2022/01/08 07:39:47;;;;;;;63.08;26.35;;;1.90;99.90;;;;;;4993039;28;20449;-72
2022/01/08 07:42:13;;;;;;;56.05;29.30;;;1.90;99.90;;;;;;4992953;28;20425;-73
2022/01/08 07:44:39;;;;;;;72.30;35.40;;;2.00;99.90;;;;;;4992635;28;20894;-73
2022/01/08 07:47:05;;;;;;;74.88;36.00;;;2.00;99.90;;;;;;4992730;28;20895;-71
2022/01/08 07:49:31;;;;;;;66.97;32.47;;;2.00;99.90;;;;;;4993017;28;20418;-73
2022/01/08 07:51:56;;;;;;;56.27;29.93;;;2.00;99.90;;;;;;4993726;28;20390;-73
2022/01/08 07:54:22;;;;;;;50.92;26.52;;;2.00;99.90;;;;;;4993032;28;20476;-73
2022/01/08 07:56:48;;;;;;;49.75;26.60;;;2.10;99.90;;;;;;4992843;28;20390;-73
2022/01/08 07:59:13;;;;;;;45.72;26.35;;;2.00;99.90;;;;;;4993273;28;20394;-72
2022/01/08 08:01:39;;;;;;;58.30;27.57;;;2.10;99.90;;;;;;4993444;28;20490;-71
2022/01/08 08:04:04;;;;;;;49.10;24.77;;;2.20;99.90;;;;;;4994341;28;20441;-72
2022/01/08 08:06:32;;;;;;;55.17;25.33;;;2.20;99.90;;;;;;4993455;28;20391;-72
2022/01/08 08:08:58;;;;;;;48.92;25.42;;;2.30;99.90;;;;;;4992579;28;20493;-72
2022/01/08 08:11:23;;;;;;;48.85;23.70;;;2.30;99.90;;;;;;4992834;28;20486;-73
2022/01/08 08:13:49;;;;;;;49.90;24.83;;;2.50;99.90;;;;;;4992973;28;20422;-73
2022/01/08 08:16:14;;;;;;;53.97;25.20;;;2.50;99.80;;;;;;4992972;28;20401;-73
2022/01/08 08:18:41;;;;;;;48.37;24.57;;;2.70;99.80;;;;;;4992445;28;20725;-73
2022/01/08 08:21:06;;;;;;;44.33;24.13;;;2.80;94.70;;;;;;4992156;28;20401;-72
2022/01/08 08:23:32;;;;;;;45.23;24.40;;;2.80;95.10;;;;;;4992965;28;20395;-72
2022/01/08 08:25:57;;;;;;;54.57;24.90;;;2.80;94.10;;;;;;4992779;28;20405;-73
2022/01/08 08:28:23;;;;;;;48.63;24.40;;;2.80;91.90;;;;;;4991976;28;20421;-72
2022/01/08 08:30:48;;;;;;;50.03;24.00;;;2.80;90.90;;;;;;4992355;28;20880;-72
2022/01/08 08:33:14;;;;;;;54.60;26.20;;;2.80;90.90;;;;;;4992658;28;20383;-73
2022/01/08 08:35:39;;;;;;;53.63;25.80;;;2.80;91.20;;;;;;4992838;28;20395;-73
2022/01/08 08:38:05;;;;;;;49.42;21.85;;;2.80;91.00;;;;;;4992888;28;20394;-72
2022/01/08 08:40:30;;;;;;;41.53;19.30;;;2.90;89.90;;;;;;4992840;28;20386;-71
2022/01/08 08:42:56;;;;;;;38.03;18.87;;;2.90;89.10;;;;;;4993541;28;20398;-72
2022/01/08 08:45:22;;;;;;;34.47;17.20;;;3.00;89.40;;;;;;4992885;28;20395;-72
2022/01/08 08:47:49;;;;;;;33.70;18.02;;;3.10;88.30;;;;;;4999504;28;20410;-71
2022/01/08 08:50:15;;;;;;;34.35;18.10;;;3.10;90.80;;;;;;5003137;28;20426;-73
2022/01/08 08:52:41;;;;;;;41.88;17.15;;;3.30;87.20;;;;;;4999498;28;20409;-72
2022/01/08 08:55:07;;;;;;;39.73;17.30;;;3.40;85.60;;;;;;4997754;28;20852;-71
2022/01/08 08:57:33;;;;;;;35.58;17.15;;;3.40;84.10;;;;;;4990661;28;20445;-71
2022/01/08 08:59:58;;;;;;;36.33;17.50;;;3.60;82.50;;;;;;4991788;28;20391;-73
2022/01/08 09:02:24;;;;;;;39.92;18.00;;;3.70;80.80;;;;;;4991574;28;20382;-73
2022/01/08 09:04:50;;;;;;;34.65;17.02;;;3.70;81.40;;;;;;4994950;28;20387;-72
2022/01/08 09:07:16;;;;;;;44.28;18.90;;;3.70;80.40;;;;;;5005563;28;20391;-72
2022/01/08 09:09:43;;;;;;;33.72;17.77;;;3.70;78.60;;;;;;5004051;28;20839;-73
2022/01/08 09:12:10;;;;;;;38.55;17.38;;;3.70;81.90;;;;;;4991774;28;20386;-72
2022/01/08 09:14:35;;;;;;;40.22;17.60;;;3.80;80.30;;;;;;4991829;28;20398;-71
2022/01/08 09:17:04;;;;;;;34.13;18.30;;;3.90;77.60;;;;;;4991872;28;20374;-72
2022/01/08 09:19:31;;;;;;;34.28;17.98;;;3.90;78.50;;;;;;4990539;28;20804;-72
2022/01/08 09:21:56;;;;;;;36.55;17.58;;;4.10;78.40;;;;;;4991538;28;20402;-71
2022/01/08 09:24:22;;;;;;;36.33;17.40;;;4.20;72.00;;;;;;4992078;28;20884;-73
2022/01/08 09:26:48;;;;;;;39.53;18.08;;;4.30;71.70;;;;;;4991681;28;20452;-73
2022/01/08 09:29:16;;;;;;;41.80;18.25;;;4.30;71.10;;;;;;4992348;28;20418;-72
2022/01/08 09:31:42;;;;;;;38.90;18.13;;;4.40;69.30;;;;;;4995004;28;20457;-74
2022/01/08 09:34:09;;;;;;;33.50;17.70;;;4.50;68.20;;;;;;4995648;28;20390;-73
2022/01/08 09:36:35;;;;;;;42.30;18.77;;;4.40;68.70;;;;;;4995916;28;20432;-72
2022/01/08 09:39:02;;;;;;;41.77;18.80;;;4.60;68.90;;;;;;4995653;28;20752;-73
2022/01/08 09:41:27;;;;;;;36.92;17.38;;;4.60;67.30;;;;;;4996160;28;20444;-73
2022/01/08 09:43:53;;;;;;;36.10;17.35;;;4.60;66.80;;;;;;4996409;28;20477;-72
2022/01/08 09:46:21;;;;;;;41.40;18.38;;;4.60;67.80;;;;;;4995662;28;20482;-72
2022/01/08 09:48:48;;;;;;;30.93;16.90;;;4.60;67.70;;;;;;4995445;28;20537;-73
2022/01/08 09:51:14;;;;;;;35.95;17.30;;;4.60;67.30;;;;;;4995996;28;20389;-73
2022/01/08 09:53:40;;;;;;;37.42;17.67;;;4.70;66.10;;;;;;4998695;28;20390;-71
2022/01/08 09:56:06;;;;;;;39.83;17.37;;;4.80;66.10;;;;;;5011448;28;20394;-72
2022/01/08 09:58:32;;;;;;;41.13;18.13;;;5.00;63.50;;;;;;5002576;28;20401;-73
2022/01/08 10:00:58;;;;;;;34.88;17.10;;;5.00;64.60;;;;;;4995035;28;20394;-72
2022/01/08 10:03:26;;;;;;;37.47;17.55;;;5.00;64.20;;;;;;4994612;28;20460;-72
2022/01/08 10:06:00;;;;;;;34.45;16.92;;;5.10;62.60;;;;;;4994912;28;20452;-73
2022/01/08 10:08:28;;;;;;;38.47;17.15;;;5.10;62.00;;;;;;4994828;28;20406;-72
2022/01/08 10:11:14;;;;;;;38.63;17.40;;;5.10;61.50;;;;;;4995343;28;20446;-73
2022/01/08 10:13:41;;;;;;;40.50;17.70;;;5.20;61.00;;;;;;4999066;28;20395;-73
2022/01/08 10:19:01;;;;;;;38.97;17.50;;;5.20;61.30;;;;;;4996027;28;20417;-72
2022/01/08 10:21:37;;;;;;;37.75;17.58;;;5.30;60.80;;;;;;4996306;28;20787;-72
2022/01/08 10:24:05;;;;;;;41.88;17.73;;;5.30;59.40;;;;;;4999142;28;20390;-73
2022/01/08 10:26:38;;;;;;;34.78;17.05;;;5.30;59.80;;;;;;5003352;28;20482;-74
2022/01/08 10:29:11;;;;;;;36.00;17.67;;;5.20;60.20;;;;;;4999088;28;20434;-73
2022/01/08 10:31:42;;;;;;;44.25;18.02;;;5.30;60.10;;;;;;5004592;28;20386;-72
2022/01/08 10:34:30;;;;;;;31.58;16.05;;;5.50;57.90;;;;;;5007170;28;20383;-72
2022/01/08 10:37:06;;;;;;;30.42;14.80;;;5.40;56.00;;;;;;4998210;28;20417;-74
2022/01/08 10:39:41;;;;;;;34.40;16.17;;;5.40;56.50;;;;;;4994442;28;20386;-73
2022/01/08 10:42:11;;;;;;;35.88;16.10;;;5.40;57.40;;;;;;4992599;28;20438;-72
2022/01/08 10:44:36;;;;;;;25.27;14.18;;;5.40;58.20;;;;;;4992951;28;20445;-72
2022/01/08 10:47:02;;;;;;;29.63;14.47;;;5.40;57.60;;;;;;4977518;28;20416;-73
2022/01/08 10:49:39;;;;;;;27.00;14.27;;;5.50;55.90;;;;;;4973184;28;20466;-71
2022/01/08 10:52:07;;;;;;;29.90;14.23;;;5.60;56.20;;;;;;4974693;28;20467;-72
2022/01/08 10:54:35;;;;;;;31.85;13.90;;;5.80;54.70;;;;;;4975103;28;20392;-72
2022/01/08 10:57:03;;;;;;;26.17;13.70;;;5.80;52.50;;;;;;4975033;28;20391;-72
2022/01/08 10:59:30;;;;;;;28.45;13.95;;;5.90;51.80;;;;;;4974564;28;20475;-73
2022/01/08 11:02:15;;;;;;;26.50;11.32;;;5.90;51.60;;;;;;4974833;28;20403;-73
2022/01/08 11:04:47;;;;;;;27.15;11.60;;;5.90;49.10;;;;;;4974528;28;20389;-71
2022/01/08 11:07:12;;;;;;;24.58;10.50;;;6.00;49.70;;;;;;4974522;28;20405;-72
2022/01/08 11:09:40;;;;;;;21.40;9.97;;;6.10;47.80;;;;;;4974795;28;20762;-71
2022/01/08 11:12:10;;;;;;;18.60;9.70;;;6.20;46.70;;;;;;4973141;28;20396;-71
2022/01/08 11:17:39;;;;;;;18.38;9.70;;;6.30;45.90;;;;;;4974343;28;20749;-72
2022/01/08 11:20:04;;;;;;;16.70;9.18;;;6.50;44.80;;;;;;4974476;28;20766;-72
2022/01/08 11:22:32;;;;;;;19.25;8.88;;;6.50;44.60;;;;;;4974612;28;20434;-72
2022/01/08 11:25:06;;;;;;;23.80;9.93;;;6.60;43.40;;;;;;4974784;28;20388;-72
2022/01/08 11:27:40;;;;;;;18.10;9.40;;;6.60;43.40;;;;;;4973862;28;20426;-72
2022/01/08 11:30:13;;;;;;;22.33;9.30;;;6.50;43.90;;;;;;4974311;28;20425;-73
2022/01/08 11:32:40;;;;;;;21.80;8.88;;;6.50;43.90;;;;;;4974286;28;20438;-74
2022/01/08 11:35:08;;;;;;;19.48;8.23;;;6.50;43.00;;;;;;4974222;28;20467;-73
2022/01/08 11:37:33;;;;;;;15.55;8.02;;;6.40;42.70;;;;;;4972783;28;20475;-72
2022/01/08 11:40:07;;;;;;;15.30;6.93;;;6.40;42.70;;;;;;4974377;28;20524;-71
2022/01/08 11:42:35;;;;;;;18.33;7.70;;;6.30;41.70;;;;;;4973525;28;20402;-72
2022/01/08 11:45:03;;;;;;;17.45;7.20;;;6.40;42.20;;;;;;4975006;28;20515;-72
2022/01/08 11:47:30;;;;;;;12.13;7.18;;;6.30;42.50;;;;;;4974743;28;20388;-72
2022/01/08 11:50:01;;;;;;;11.52;6.20;;;6.40;42.10;;;;;;4977486;28;20394;-72
2022/01/08 11:52:48;;;;;;;10.75;6.00;;;6.40;40.00;;;;;;4981947;28;20392;-72
2022/01/08 11:55:33;;;;;;;16.27;6.90;;;6.40;40.40;;;;;;4975959;28;20921;-72
2022/01/08 11:58:20;;;;;;;15.48;6.80;;;6.40;40.70;;;;;;4974344;28;20869;-73
2022/01/08 12:01:00;;;;;;;9.77;5.88;;;6.30;41.10;;;;;;4974077;28;20479;-73
2022/01/08 12:03:31;;;;;;;13.40;6.07;;;6.30;41.60;;;;;;4974196;28;20400;-73
2022/01/08 12:05:58;;;;;;;14.32;5.90;;;6.30;42.10;;;;;;4973584;28;20479;-73
2022/01/08 12:09:15;;;;;;;10.40;5.38;;;6.30;39.80;;;;;;4973251;28;20418;-73
2022/01/08 12:11:47;;;;;;;15.27;5.53;;;6.30;40.30;;;;;;4973872;28;20380;-72
2022/01/08 12:14:17;;;;;;;11.20;6.25;;;6.20;39.80;;;;;;4973755;28;20406;-73
2022/01/08 12:16:44;;;;;;;10.40;5.50;;;6.30;39.80;;;;;;4973283;28;20384;-73
2022/01/08 12:19:26;;;;;;;11.23;5.60;;;6.30;40.00;;;;;;4973497;28;20392;-73
2022/01/08 12:21:52;;;;;;;9.60;5.50;;;6.40;39.10;;;;;;4973674;28;20392;-73
2022/01/08 12:24:27;;;;;;;12.85;4.40;;;6.50;38.40;;;;;;4973458;28;20390;-74
2022/01/08 12:26:54;;;;;;;7.85;4.90;;;6.60;37.50;;;;;;4973220;28;20834;-74
2022/01/08 12:29:40;;;;;;;8.50;4.50;;;6.50;37.80;;;;;;4973013;28;20841;-75
2022/01/08 12:32:34;;;;;;;9.25;4.70;;;6.60;37.40;;;;;;4972970;28;20418;-73
2022/01/08 12:35:15;;;;;;;8.40;4.20;;;6.70;37.10;;;;;;4962577;28;20454;-73
2022/01/08 12:37:44;;;;;;;10.98;4.20;;;6.90;35.80;;;;;;4972952;28;20392;-73
2022/01/08 12:40:49;;;;;;;10.13;4.15;;;7.00;34.40;;;;;;4972987;28;20469;-72
2022/01/08 12:43:18;;;;;;;14.02;4.60;;;6.90;34.00;;;;;;4913295;29;20425;-71
2022/01/08 12:45:46;;;;;;;8.73;4.40;;;6.90;33.90;;;;;;4913569;29;20397;-71
2022/01/08 12:48:13;;;;;;;10.07;4.45;;;7.00;34.80;;;;;;4942373;28;20455;-73
2022/01/08 12:50:52;;;;;;;7.50;4.33;;;7.00;33.50;;;;;;4973027;28;20471;-73
2022/01/08 12:53:23;;;;;;;10.00;4.40;;;7.00;33.10;;;;;;4973072;28;20854;-72
2022/01/08 12:55:49;;;;;;;12.57;5.30;;;7.00;33.10;;;;;;4973320;28;20406;-72
2022/01/08 12:58:25;;;;;;;13.10;3.90;;;7.10;33.60;;;;;;4972936;28;20479;-73
2022/01/08 13:01:02;;;;;;;10.23;4.13;;;7.00;32.80;;;;;;4973666;28;20415;-72
2022/01/08 13:03:29;;;;;;;9.50;4.00;;;7.10;33.20;;;;;;4971300;28;20392;-73
2022/01/08 13:05:58;;;;;;;9.55;4.22;;;7.10;33.10;;;;;;4972562;28;20399;-73
2022/01/08 13:08:29;;;;;;;9.88;4.20;;;7.20;32.70;;;;;;4975390;28;20420;-73
2022/01/08 13:10:57;;;;;;;7.60;4.40;;;7.00;31.80;;;;;;4977337;28;20427;-72
2022/01/08 13:13:24;;;;;;;11.35;4.50;;;6.80;32.90;;;;;;4973781;28;20388;-74
2022/01/08 13:15:51;;;;;;;8.70;4.10;;;6.70;33.80;;;;;;4973862;28;20416;-73